sensor_id;sensor_type;location;lat;lon;timestamp;pressure;altitude;pressure_sealevel;temperature;humidity
19736;BME280;32064;49.310;8.646;2023-03-22T00:00:24;100348.25;;;12.86;71.90
19736;BME280;32064;49.310;8.646;2023-03-22T00:02:52;100349.81;;;12.89;70.76
19736;BME280;32064;49.310;8.646;2023-03-22T00:05:18;100352.47;;;12.89;70.83
19736;BME280;32064;49.310;8.646;2023-03-22T00:07:43;100348.13;;;12.88;71.84
19736;BME280;32064;49.310;8.646;2023-03-22T00:10:09;100352.31;;;12.90;71.13
19736;BME280;32064;49.310;8.646;2023-03-22T00:12:34;100349.94;;;12.87;71.45
19736;BME280;32064;49.310;8.646;2023-03-22T00:15:00;100341.31;;;12.85;72.16
19736;BME280;32064;49.310;8.646;2023-03-22T00:17:25;100338.91;;;12.82;72.18
19736;BME280;32064;49.310;8.646;2023-03-22T00:19:51;100343.97;;;12.85;71.41
19736;BME280;32064;49.310;8.646;2023-03-22T00:22:19;100342.16;;;12.86;70.84
19736;BME280;32064;49.310;8.646;2023-03-22T00:24:44;100343.09;;;12.85;72.07
19736;BME280;32064;49.310;8.646;2023-03-22T00:27:10;100348.16;;;12.76;72.23
19736;BME280;32064;49.310;8.646;2023-03-22T00:29:35;100343.97;;;12.74;72.20
19736;BME280;32064;49.310;8.646;2023-03-22T00:32:00;100344.09;;;12.72;72.45
19736;BME280;32064;49.310;8.646;2023-03-22T00:34:30;100333.41;;;12.74;72.61
19736;BME280;32064;49.310;8.646;2023-03-22T00:36:55;100332.19;;;12.78;72.13
19736;BME280;32064;49.310;8.646;2023-03-22T00:39:21;100337.38;;;12.79;70.96
19736;BME280;32064;49.310;8.646;2023-03-22T00:41:46;100336.97;;;12.84;70.72
19736;BME280;32064;49.310;8.646;2023-03-22T00:44:12;100330.50;;;12.88;70.35
19736;BME280;32064;49.310;8.646;2023-03-22T00:46:37;100331.91;;;12.92;70.79
19736;BME280;32064;49.310;8.646;2023-03-22T00:49:03;100327.22;;;12.96;70.34
19736;BME280;32064;49.310;8.646;2023-03-22T00:51:28;100322.66;;;12.98;71.13
19736;BME280;32064;49.310;8.646;2023-03-22T00:53:54;100316.28;;;13.00;70.38
19736;BME280;32064;49.310;8.646;2023-03-22T00:56:19;100311.84;;;13.01;72.10
19736;BME280;32064;49.310;8.646;2023-03-22T00:58:47;100312.81;;;13.00;70.82
19736;BME280;32064;49.310;8.646;2023-03-22T01:01:13;100303.34;;;12.97;71.36
19736;BME280;32064;49.310;8.646;2023-03-22T01:03:39;100302.50;;;12.97;70.42
19736;BME280;32064;49.310;8.646;2023-03-22T01:06:05;100300.25;;;12.92;70.12
19736;BME280;32064;49.310;8.646;2023-03-22T01:08:31;100293.28;;;12.91;71.63
19736;BME280;32064;49.310;8.646;2023-03-22T01:10:57;100295.94;;;12.91;71.46
19736;BME280;32064;49.310;8.646;2023-03-22T01:13:22;100287.03;;;12.92;70.94
19736;BME280;32064;49.310;8.646;2023-03-22T01:15:51;100293.63;;;12.98;70.83
19736;BME280;32064;49.310;8.646;2023-03-22T01:18:17;100287.34;;;12.99;70.52
19736;BME280;32064;49.310;8.646;2023-03-22T01:20:42;100290.88;;;12.99;70.22
19736;BME280;32064;49.310;8.646;2023-03-22T01:23:08;100288.81;;;13.03;70.31
19736;BME280;32064;49.310;8.646;2023-03-22T01:25:33;100280.88;;;13.03;71.26
19736;BME280;32064;49.310;8.646;2023-03-22T01:27:59;100272.97;;;13.03;69.87
19736;BME280;32064;49.310;8.646;2023-03-22T01:30:27;100275.72;;;13.01;70.93
19736;BME280;32064;49.310;8.646;2023-03-22T01:32:52;100277.78;;;12.98;71.25
19736;BME280;32064;49.310;8.646;2023-03-22T01:35:19;100273.47;;;12.97;70.38
19736;BME280;32064;49.310;8.646;2023-03-22T01:37:44;100268.19;;;12.97;71.30
19736;BME280;32064;49.310;8.646;2023-03-22T01:40:12;100280.53;;;12.96;70.80
19736;BME280;32064;49.310;8.646;2023-03-22T01:42:38;100275.25;;;12.96;70.31
19736;BME280;32064;49.310;8.646;2023-03-22T01:47:40;100278.13;;;12.93;69.97
19736;BME280;32064;49.310;8.646;2023-03-22T01:50:08;100275.50;;;12.93;71.13
19736;BME280;32064;49.310;8.646;2023-03-22T01:52:34;100272.03;;;12.93;71.16
19736;BME280;32064;49.310;8.646;2023-03-22T01:55:00;100268.66;;;12.91;70.67
19736;BME280;32064;49.310;8.646;2023-03-22T01:57:26;100273.94;;;12.91;70.52
19736;BME280;32064;49.310;8.646;2023-03-22T01:59:51;100269.63;;;12.90;71.15
19736;BME280;32064;49.310;8.646;2023-03-22T02:02:17;100275.06;;;12.88;71.13
19736;BME280;32064;49.310;8.646;2023-03-22T02:04:44;100271.31;;;12.91;70.33
19736;BME280;32064;49.310;8.646;2023-03-22T02:07:15;100277.31;;;12.93;70.38
19736;BME280;32064;49.310;8.646;2023-03-22T02:09:51;100271.75;;;12.96;70.84
19736;BME280;32064;49.310;8.646;2023-03-22T02:15:28;100264.31;;;13.01;71.46
19736;BME280;32064;49.310;8.646;2023-03-22T02:39:54;100254.94;;;13.08;71.40
19736;BME280;32064;49.310;8.646;2023-03-22T02:50:41;100255.13;;;13.16;70.53
19736;BME280;32064;49.310;8.646;2023-03-22T02:53:15;100255.13;;;13.16;70.43
19736;BME280;32064;49.310;8.646;2023-03-22T02:55:43;100255.13;;;13.16;70.83
19736;BME280;32064;49.310;8.646;2023-03-22T02:58:16;100256.06;;;13.15;71.29
19736;BME280;32064;49.310;8.646;2023-03-22T03:00:44;100249.13;;;13.14;71.14
19736;BME280;32064;49.310;8.646;2023-03-22T03:03:12;100255.81;;;13.18;70.62
19736;BME280;32064;49.310;8.646;2023-03-22T03:05:46;100243.44;;;13.19;70.26
19736;BME280;32064;49.310;8.646;2023-03-22T03:08:14;100235.53;;;13.19;70.72
19736;BME280;32064;49.310;8.646;2023-03-22T03:10:41;100250.94;;;13.14;70.08
19736;BME280;32064;49.310;8.646;2023-03-22T03:13:11;100237.84;;;13.12;70.90
19736;BME280;32064;49.310;8.646;2023-03-22T03:15:38;100235.09;;;13.14;70.59
19736;BME280;32064;49.310;8.646;2023-03-22T03:18:18;100240.84;;;13.08;70.35
19736;BME280;32064;49.310;8.646;2023-03-22T03:21:09;100230.28;;;13.08;70.15
19736;BME280;32064;49.310;8.646;2023-03-22T03:24:25;100237.53;;;13.06;70.34
19736;BME280;32064;49.310;8.646;2023-03-22T03:27:03;100239.44;;;13.03;70.47
19736;BME280;32064;49.310;8.646;2023-03-22T03:29:44;100234.28;;;13.02;71.40
19736;BME280;32064;49.310;8.646;2023-03-22T03:35:14;100236.94;;;13.02;70.62
19736;BME280;32064;49.310;8.646;2023-03-22T03:37:48;100235.16;;;13.02;71.01
19736;BME280;32064;49.310;8.646;2023-03-22T03:40:23;100234.69;;;12.97;70.42
19736;BME280;32064;49.310;8.646;2023-03-22T03:42:51;100238.28;;;12.96;70.54
19736;BME280;32064;49.310;8.646;2023-03-22T03:45:19;100234.94;;;12.94;70.73
19736;BME280;32064;49.310;8.646;2023-03-22T03:47:47;100238.53;;;12.93;71.03
19736;BME280;32064;49.310;8.646;2023-03-22T03:50:19;100234.13;;;12.94;70.30
19736;BME280;32064;49.310;8.646;2023-03-22T03:52:45;100231.31;;;12.95;69.56
19736;BME280;32064;49.310;8.646;2023-03-22T03:55:11;100234.22;;;12.92;71.74
19736;BME280;32064;49.310;8.646;2023-03-22T03:57:36;100232.41;;;12.93;69.99
19736;BME280;32064;49.310;8.646;2023-03-22T04:00:03;100230.59;;;12.93;70.12
19736;BME280;32064;49.310;8.646;2023-03-22T04:02:28;100240.22;;;12.94;70.06
19736;BME280;32064;49.310;8.646;2023-03-22T04:04:54;100239.50;;;12.92;70.59
19736;BME280;32064;49.310;8.646;2023-03-22T04:07:19;100234.34;;;12.91;71.59
19736;BME280;32064;49.310;8.646;2023-03-22T04:09:45;100237.13;;;12.89;69.83
19736;BME280;32064;49.310;8.646;2023-03-22T04:12:10;100234.00;;;12.84;70.71
19736;BME280;32064;49.310;8.646;2023-03-22T04:14:36;100229.25;;;12.78;71.40
19736;BME280;32064;49.310;8.646;2023-03-22T04:17:01;100226.28;;;12.71;70.26
19736;BME280;32064;49.310;8.646;2023-03-22T04:19:27;100230.38;;;12.64;70.66
19736;BME280;32064;49.310;8.646;2023-03-22T04:21:52;100227.00;;;12.62;69.87
19736;BME280;32064;49.310;8.646;2023-03-22T04:24:19;100227.97;;;12.61;70.05
19736;BME280;32064;49.310;8.646;2023-03-22T04:26:45;100228.97;;;12.60;70.20
19736;BME280;32064;49.310;8.646;2023-03-22T04:29:11;100224.97;;;12.66;70.75
19736;BME280;32064;49.310;8.646;2023-03-22T04:31:36;100210.69;;;12.68;69.87
19736;BME280;32064;49.310;8.646;2023-03-22T04:34:03;100214.84;;;12.71;70.32
19736;BME280;32064;49.310;8.646;2023-03-22T04:36:31;100215.09;;;12.68;71.51
19736;BME280;32064;49.310;8.646;2023-03-22T04:39:09;100215.38;;;12.65;70.63
19736;BME280;32064;49.310;8.646;2023-03-22T04:41:36;100216.81;;;12.69;70.07
19736;BME280;32064;49.310;8.646;2023-03-22T04:44:03;100207.34;;;12.66;69.81
19736;BME280;32064;49.310;8.646;2023-03-22T04:46:29;100202.56;;;12.60;71.71
19736;BME280;32064;49.310;8.646;2023-03-22T04:48:55;100213.47;;;12.55;70.11
19736;BME280;32064;49.310;8.646;2023-03-22T04:51:21;100209.44;;;12.51;70.97
19736;BME280;32064;49.310;8.646;2023-03-22T04:53:46;100210.63;;;12.47;70.70
19736;BME280;32064;49.310;8.646;2023-03-22T04:56:13;100206.56;;;12.43;70.46
19736;BME280;32064;49.310;8.646;2023-03-22T04:58:41;100205.97;;;12.40;69.98
19736;BME280;32064;49.310;8.646;2023-03-22T05:01:11;100208.84;;;12.36;70.11
19736;BME280;32064;49.310;8.646;2023-03-22T05:03:38;100213.53;;;12.33;71.82
19736;BME280;32064;49.310;8.646;2023-03-22T05:06:05;100206.72;;;12.30;70.58
19736;BME280;32064;49.310;8.646;2023-03-22T05:08:32;100207.09;;;12.26;71.94
19736;BME280;32064;49.310;8.646;2023-03-22T05:11:03;100209.13;;;12.22;71.88
19736;BME280;32064;49.310;8.646;2023-03-22T05:13:29;100204.00;;;12.21;71.72
19736;BME280;32064;49.310;8.646;2023-03-22T05:15:54;100206.97;;;12.16;71.20
19736;BME280;32064;49.310;8.646;2023-03-22T05:18:21;100216.22;;;12.10;71.18
19736;BME280;32064;49.310;8.646;2023-03-22T05:20:48;100212.28;;;12.05;70.44
19736;BME280;32064;49.310;8.646;2023-03-22T05:23:15;100217.06;;;12.00;70.44
19736;BME280;32064;49.310;8.646;2023-03-22T05:25:49;100214.09;;;11.93;70.88
19736;BME280;32064;49.310;8.646;2023-03-22T05:28:15;100218.63;;;11.91;70.78
19736;BME280;32064;49.310;8.646;2023-03-22T05:30:44;100215.41;;;11.87;70.31
19736;BME280;32064;49.310;8.646;2023-03-22T05:33:10;100213.22;;;11.81;71.16
19736;BME280;32064;49.310;8.646;2023-03-22T05:35:38;100224.50;;;11.83;69.69
19736;BME280;32064;49.310;8.646;2023-03-22T05:38:04;100216.59;;;11.83;69.87
19736;BME280;32064;49.310;8.646;2023-03-22T05:40:30;100216.25;;;11.88;71.34
19736;BME280;32064;49.310;8.646;2023-03-22T05:42:56;100210.63;;;11.93;69.55
19736;BME280;32064;49.310;8.646;2023-03-22T05:45:22;100219.25;;;11.95;69.80
19736;BME280;32064;49.310;8.646;2023-03-22T05:47:48;100214.31;;;12.01;70.63
19736;BME280;32064;49.310;8.646;2023-03-22T05:50:17;100213.25;;;12.04;69.95
19736;BME280;32064;49.310;8.646;2023-03-22T05:52:44;100221.63;;;12.09;70.64
19736;BME280;32064;49.310;8.646;2023-03-22T05:55:11;100223.78;;;12.15;70.25
19736;BME280;32064;49.310;8.646;2023-03-22T05:57:38;100218.00;;;12.21;70.19
19736;BME280;32064;49.310;8.646;2023-03-22T06:00:06;100234.41;;;12.25;70.91
19736;BME280;32064;49.310;8.646;2023-03-22T06:02:46;100234.41;;;12.25;70.62
19736;BME280;32064;49.310;8.646;2023-03-22T06:05:13;100240.75;;;12.33;70.39
19736;BME280;32064;49.310;8.646;2023-03-22T06:07:39;100244.72;;;12.39;70.06
19736;BME280;32064;49.310;8.646;2023-03-22T06:10:07;100243.25;;;12.46;70.66
19736;BME280;32064;49.310;8.646;2023-03-22T06:12:33;100238.47;;;12.51;70.22
19736;BME280;32064;49.310;8.646;2023-03-22T06:14:59;100237.81;;;12.59;70.21
19736;BME280;32064;49.310;8.646;2023-03-22T06:17:24;100241.66;;;12.66;70.38
19736;BME280;32064;49.310;8.646;2023-03-22T06:19:50;100243.06;;;12.70;69.87
19736;BME280;32064;49.310;8.646;2023-03-22T06:22:16;100249.38;;;12.79;70.25
19736;BME280;32064;49.310;8.646;2023-03-22T06:24:42;100248.78;;;12.87;68.87
19736;BME280;32064;49.310;8.646;2023-03-22T06:27:08;100243.69;;;12.95;69.68
19736;BME280;32064;49.310;8.646;2023-03-22T06:29:34;100252.53;;;13.05;68.70
19736;BME280;32064;49.310;8.646;2023-03-22T06:32:00;100243.84;;;13.14;68.94
19736;BME280;32064;49.310;8.646;2023-03-22T06:34:25;100242.34;;;13.21;68.62
19736;BME280;32064;49.310;8.646;2023-03-22T06:36:51;100244.88;;;13.23;69.25
19736;BME280;32064;49.310;8.646;2023-03-22T06:39:20;100244.69;;;13.36;68.56
19736;BME280;32064;49.310;8.646;2023-03-22T06:41:46;100238.84;;;13.53;67.11
19736;BME280;32064;49.310;8.646;2023-03-22T06:44:12;100245.06;;;13.73;67.70
19736;BME280;32064;49.310;8.646;2023-03-22T06:46:37;100239.91;;;13.72;66.56
19736;BME280;32064;49.310;8.646;2023-03-22T06:49:03;100242.81;;;13.68;67.04
19736;BME280;32064;49.310;8.646;2023-03-22T06:51:29;100244.03;;;13.95;66.55
19736;BME280;32064;49.310;8.646;2023-03-22T06:53:55;100247.84;;;14.02;66.74
19736;BME280;32064;49.310;8.646;2023-03-22T06:56:20;100244.56;;;16.12;61.88
19736;BME280;32064;49.310;8.646;2023-03-22T06:58:46;100248.78;;;19.10;54.71
19736;BME280;32064;49.310;8.646;2023-03-22T07:01:12;100240.66;;;20.94;49.84
19736;BME280;32064;49.310;8.646;2023-03-22T07:03:37;100248.97;;;22.34;47.65
19736;BME280;32064;49.310;8.646;2023-03-22T07:06:04;100257.19;;;23.33;46.64
19736;BME280;32064;49.310;8.646;2023-03-22T07:08:30;100256.09;;;24.18;44.62
19736;BME280;32064;49.310;8.646;2023-03-22T07:10:56;100258.41;;;24.96;43.46
19736;BME280;32064;49.310;8.646;2023-03-22T07:13:21;100263.00;;;25.49;43.07
19736;BME280;32064;49.310;8.646;2023-03-22T07:15:47;100262.16;;;25.88;42.13
19736;BME280;32064;49.310;8.646;2023-03-22T07:18:12;100258.56;;;26.01;41.50
19736;BME280;32064;49.310;8.646;2023-03-22T07:20:38;100250.78;;;26.31;40.50
19736;BME280;32064;49.310;8.646;2023-03-22T07:23:06;100250.06;;;26.56;40.39
19736;BME280;32064;49.310;8.646;2023-03-22T07:25:32;100260.81;;;26.94;39.72
19736;BME280;32064;49.310;8.646;2023-03-22T07:27:59;100258.63;;;27.41;38.86
19736;BME280;32064;49.310;8.646;2023-03-22T07:30:25;100259.22;;;27.43;38.87
19736;BME280;32064;49.310;8.646;2023-03-22T07:32:50;100263.06;;;27.54;38.23
19736;BME280;32064;49.310;8.646;2023-03-22T07:35:16;100266.69;;;27.66;38.95
19736;BME280;32064;49.310;8.646;2023-03-22T07:37:43;100260.06;;;27.62;38.16
19736;BME280;32064;49.310;8.646;2023-03-22T07:40:09;100259.31;;;27.80;38.11
19736;BME280;32064;49.310;8.646;2023-03-22T07:42:35;100270.50;;;26.77;38.46
19736;BME280;32064;49.310;8.646;2023-03-22T07:45:00;100260.09;;;23.94;43.16
19736;BME280;32064;49.310;8.646;2023-03-22T07:47:26;100262.88;;;23.45;43.63
19736;BME280;32064;49.310;8.646;2023-03-22T07:49:51;100264.97;;;23.00;43.80
19736;BME280;32064;49.310;8.646;2023-03-22T07:52:17;100258.25;;;22.53;45.48
19736;BME280;32064;49.310;8.646;2023-03-22T07:54:43;100255.63;;;21.79;45.94
19736;BME280;32064;49.310;8.646;2023-03-22T07:57:08;100253.50;;;20.98;47.25
19736;BME280;32064;49.310;8.646;2023-03-22T07:59:34;100250.63;;;20.46;48.50
19736;BME280;32064;49.310;8.646;2023-03-22T08:01:59;100254.81;;;20.09;48.92
19736;BME280;32064;49.310;8.646;2023-03-22T08:04:25;100241.47;;;19.45;49.46
19736;BME280;32064;49.310;8.646;2023-03-22T08:06:50;100253.63;;;19.39;50.92
19736;BME280;32064;49.310;8.646;2023-03-22T08:09:16;100245.28;;;20.14;50.62
19736;BME280;32064;49.310;8.646;2023-03-22T08:11:42;100250.13;;;23.04;45.39
19736;BME280;32064;49.310;8.646;2023-03-22T08:14:07;100244.31;;;25.07;41.78
19736;BME280;32064;49.310;8.646;2023-03-22T08:16:33;100235.25;;;25.28;41.83
19736;BME280;32064;49.310;8.646;2023-03-22T08:18:59;100241.91;;;23.62;44.44
19736;BME280;32064;49.310;8.646;2023-03-22T08:21:25;100244.78;;;23.88;43.38
19736;BME280;32064;49.310;8.646;2023-03-22T08:23:50;100240.19;;;25.65;40.79
19736;BME280;32064;49.310;8.646;2023-03-22T08:26:16;100241.00;;;27.07;38.86
19736;BME280;32064;49.310;8.646;2023-03-22T08:28:42;100240.63;;;27.97;37.72
19736;BME280;32064;49.310;8.646;2023-03-22T08:31:15;100233.38;;;28.58;37.18
19736;BME280;32064;49.310;8.646;2023-03-22T08:33:41;100243.44;;;29.35;36.66
19736;BME280;32064;49.310;8.646;2023-03-22T08:36:10;100233.09;;;28.78;35.68
19736;BME280;32064;49.310;8.646;2023-03-22T08:38:36;100235.41;;;29.04;35.79
19736;BME280;32064;49.310;8.646;2023-03-22T08:41:01;100237.56;;;29.38;36.02
19736;BME280;32064;49.310;8.646;2023-03-22T08:43:27;100242.97;;;29.85;35.30
19736;BME280;32064;49.310;8.646;2023-03-22T08:45:53;100232.88;;;30.20;34.69
19736;BME280;32064;49.310;8.646;2023-03-22T08:48:18;100234.50;;;30.79;34.56
19736;BME280;32064;49.310;8.646;2023-03-22T08:50:44;100235.53;;;31.06;33.71
19736;BME280;32064;49.310;8.646;2023-03-22T08:53:09;100236.19;;;31.47;33.57
19736;BME280;32064;49.310;8.646;2023-03-22T08:55:35;100231.03;;;30.67;33.83
19736;BME280;32064;49.310;8.646;2023-03-22T08:58:01;100237.88;;;30.69;33.10
19736;BME280;32064;49.310;8.646;2023-03-22T09:00:29;100222.09;;;29.03;34.99
19736;BME280;32064;49.310;8.646;2023-03-22T09:02:54;100226.56;;;27.45;36.64
19736;BME280;32064;49.310;8.646;2023-03-22T09:05:20;100219.34;;;28.01;35.76
19736;BME280;32064;49.310;8.646;2023-03-22T09:07:45;100219.34;;;27.39;36.31
19736;BME280;32064;49.310;8.646;2023-03-22T09:10:10;100211.72;;;28.09;36.31
19736;BME280;32064;49.310;8.646;2023-03-22T09:12:37;100211.88;;;27.96;36.14
19736;BME280;32064;49.310;8.646;2023-03-22T09:15:03;100213.00;;;27.88;35.39
19736;BME280;32064;49.310;8.646;2023-03-22T09:17:28;100209.03;;;27.04;36.69
19736;BME280;32064;49.310;8.646;2023-03-22T09:19:54;100193.84;;;26.78;36.31
19736;BME280;32064;49.310;8.646;2023-03-22T09:22:20;100210.41;;;27.13;35.82
19736;BME280;32064;49.310;8.646;2023-03-22T09:24:45;100200.97;;;26.97;35.55
19736;BME280;32064;49.310;8.646;2023-03-22T09:27:10;100197.13;;;27.37;34.93
19736;BME280;32064;49.310;8.646;2023-03-22T09:29:36;100191.72;;;26.16;35.73
19736;BME280;32064;49.310;8.646;2023-03-22T09:32:01;100195.63;;;25.62;37.46
19736;BME280;32064;49.310;8.646;2023-03-22T09:34:27;100190.13;;;25.95;37.35
19736;BME280;32064;49.310;8.646;2023-03-22T09:36:52;100197.50;;;27.15;36.49
19736;BME280;32064;49.310;8.646;2023-03-22T09:39:18;100190.50;;;28.43;34.71
19736;BME280;32064;49.310;8.646;2023-03-22T09:41:47;100175.09;;;29.09;32.62
19736;BME280;32064;49.310;8.646;2023-03-22T09:44:25;100186.63;;;29.63;32.05
19736;BME280;32064;49.310;8.646;2023-03-22T09:46:54;100180.25;;;30.22;33.04
19736;BME280;32064;49.310;8.646;2023-03-22T09:49:24;100173.75;;;30.11;32.18
19736;BME280;32064;49.310;8.646;2023-03-22T09:51:52;100182.81;;;31.07;32.62
19736;BME280;32064;49.310;8.646;2023-03-22T09:54:31;100191.84;;;31.47;31.37
19736;BME280;32064;49.310;8.646;2023-03-22T10:02:01;100160.84;;;29.25;32.94
19736;BME280;32064;49.310;8.646;2023-03-22T10:04:50;100163.94;;;28.33;32.02
19736;BME280;32064;49.310;8.646;2023-03-22T10:07:25;100154.59;;;28.17;34.48
19736;BME280;32064;49.310;8.646;2023-03-22T10:10:01;100152.94;;;28.16;34.27
19736;BME280;32064;49.310;8.646;2023-03-22T10:12:39;100156.00;;;27.71;33.97
19736;BME280;32064;49.310;8.646;2023-03-22T10:15:15;100152.69;;;27.51;33.83
19736;BME280;32064;49.310;8.646;2023-03-22T10:17:45;100168.09;;;27.00;34.65
19736;BME280;32064;49.310;8.646;2023-03-22T10:20:20;100157.31;;;27.00;34.53
19736;BME280;32064;49.310;8.646;2023-03-22T10:22:49;100160.59;;;26.84;34.72
19736;BME280;32064;49.310;8.646;2023-03-22T10:25:19;100162.25;;;26.47;35.11
19736;BME280;32064;49.310;8.646;2023-03-22T10:27:47;100157.00;;;25.88;36.17
19736;BME280;32064;49.310;8.646;2023-03-22T10:30:22;100152.66;;;25.74;36.26
19736;BME280;32064;49.310;8.646;2023-03-22T10:32:54;100142.09;;;25.72;36.56
19736;BME280;32064;49.310;8.646;2023-03-22T10:35:21;100136.13;;;25.57;36.94
19736;BME280;32064;49.310;8.646;2023-03-22T10:37:48;100149.44;;;26.10;36.30
19736;BME280;32064;49.310;8.646;2023-03-22T10:40:22;100137.31;;;25.88;35.49
19736;BME280;32064;49.310;8.646;2023-03-22T10:42:54;100136.88;;;25.91;35.80
19736;BME280;32064;49.310;8.646;2023-03-22T10:45:22;100133.44;;;26.09;35.96
19736;BME280;32064;49.310;8.646;2023-03-22T10:48:10;100125.25;;;25.25;36.51
19736;BME280;32064;49.310;8.646;2023-03-22T10:50:41;100126.53;;;25.74;36.13
19736;BME280;32064;49.310;8.646;2023-03-22T10:55:42;100132.75;;;26.58;35.54
19736;BME280;32064;49.310;8.646;2023-03-22T10:58:15;100122.34;;;27.67;34.44
19736;BME280;32064;49.310;8.646;2023-03-22T11:00:45;100126.22;;;28.50;33.91
19736;BME280;32064;49.310;8.646;2023-03-22T11:06:47;100115.13;;;29.17;32.50
19736;BME280;32064;49.310;8.646;2023-03-22T11:09:16;100124.47;;;29.73;30.96
19736;BME280;32064;49.310;8.646;2023-03-22T11:11:52;100115.13;;;30.10;30.65
19736;BME280;32064;49.310;8.646;2023-03-22T11:14:24;100118.56;;;30.68;31.83
19736;BME280;32064;49.310;8.646;2023-03-22T11:16:54;100115.50;;;31.15;31.66
19736;BME280;32064;49.310;8.646;2023-03-22T11:19:24;100111.56;;;31.44;30.70
19736;BME280;32064;49.310;8.646;2023-03-22T11:21:51;100102.97;;;31.52;30.73
19736;BME280;32064;49.310;8.646;2023-03-22T11:24:17;100098.78;;;31.23;29.58
19736;BME280;32064;49.310;8.646;2023-03-22T11:29:47;100104.72;;;31.20;29.34
19736;BME280;32064;49.310;8.646;2023-03-22T11:32:29;100105.13;;;31.33;28.95
19736;BME280;32064;49.310;8.646;2023-03-22T11:35:22;100095.53;;;30.53;29.23
19736;BME280;32064;49.310;8.646;2023-03-22T11:37:54;100094.19;;;29.93;30.39
19736;BME280;32064;49.310;8.646;2023-03-22T11:42:46;100092.25;;;28.90;30.56
19736;BME280;32064;49.310;8.646;2023-03-22T11:45:15;100086.81;;;28.78;31.34
19736;BME280;32064;49.310;8.646;2023-03-22T11:47:41;100086.84;;;28.24;31.63
19736;BME280;32064;49.310;8.646;2023-03-22T11:50:08;100093.69;;;27.96;32.19
19736;BME280;32064;49.310;8.646;2023-03-22T11:52:46;100083.34;;;27.75;32.59
19736;BME280;32064;49.310;8.646;2023-03-22T11:55:14;100068.97;;;27.44;32.37
19736;BME280;32064;49.310;8.646;2023-03-22T11:57:40;100077.22;;;27.31;33.13
19736;BME280;32064;49.310;8.646;2023-03-22T12:00:20;100068.38;;;26.80;33.62
19736;BME280;32064;49.310;8.646;2023-03-22T12:02:51;100063.41;;;26.59;33.43
19736;BME280;32064;49.310;8.646;2023-03-22T12:05:26;100067.47;;;26.68;33.62
19736;BME280;32064;49.310;8.646;2023-03-22T12:08:17;100068.09;;;26.88;33.70
19736;BME280;32064;49.310;8.646;2023-03-22T12:10:53;100061.13;;;26.99;33.59
19736;BME280;32064;49.310;8.646;2023-03-22T12:13:36;100059.94;;;26.95;33.63
19736;BME280;32064;49.310;8.646;2023-03-22T12:16:05;100054.56;;;26.45;33.67
19736;BME280;32064;49.310;8.646;2023-03-22T12:18:47;100050.91;;;26.83;33.63
19736;BME280;32064;49.310;8.646;2023-03-22T12:21:14;100051.59;;;26.97;33.65
19736;BME280;32064;49.310;8.646;2023-03-22T12:23:41;100044.94;;;26.81;34.12
19736;BME280;32064;49.310;8.646;2023-03-22T12:26:23;100044.78;;;26.51;33.77
19736;BME280;32064;49.310;8.646;2023-03-22T12:29:07;100031.53;;;26.42;33.48
19736;BME280;32064;49.310;8.646;2023-03-22T12:31:59;100022.13;;;26.52;33.79
19736;BME280;32064;49.310;8.646;2023-03-22T12:34:53;100021.41;;;26.63;33.51
19736;BME280;32064;49.310;8.646;2023-03-22T12:37:25;100025.44;;;26.54;33.83
19736;BME280;32064;49.310;8.646;2023-03-22T12:39:57;100020.59;;;26.62;34.01
19736;BME280;32064;49.310;8.646;2023-03-22T12:42:30;100020.09;;;26.91;33.42
19736;BME280;32064;49.310;8.646;2023-03-22T12:45:03;100011.03;;;26.35;34.23
19736;BME280;32064;49.310;8.646;2023-03-22T12:47:45;100015.63;;;26.34;33.77
19736;BME280;32064;49.310;8.646;2023-03-22T12:50:18;100011.47;;;26.07;33.59
19736;BME280;32064;49.310;8.646;2023-03-22T12:52:49;99994.84;;;26.35;33.14
19736;BME280;32064;49.310;8.646;2023-03-22T12:55:28;99991.88;;;26.43;33.36
19736;BME280;32064;49.310;8.646;2023-03-22T12:57:55;99985.28;;;26.14;34.09
19736;BME280;32064;49.310;8.646;2023-03-22T13:00:41;99993.56;;;25.87;34.22
19736;BME280;32064;49.310;8.646;2023-03-22T13:05:40;99990.56;;;25.70;34.28
19736;BME280;32064;49.310;8.646;2023-03-22T13:08:06;99985.72;;;25.79;34.43
19736;BME280;32064;49.310;8.646;2023-03-22T13:13:32;99971.06;;;25.68;34.80
19736;BME280;32064;49.310;8.646;2023-03-22T13:21:17;99956.59;;;25.63;35.08
19736;BME280;32064;49.310;8.646;2023-03-22T13:24:18;99951.91;;;25.51;34.75
19736;BME280;32064;49.310;8.646;2023-03-22T13:26:45;99965.81;;;25.80;35.32
19736;BME280;32064;49.310;8.646;2023-03-22T13:29:19;99960.47;;;25.73;34.29
19736;BME280;32064;49.310;8.646;2023-03-22T13:31:53;99948.84;;;25.73;34.38
19736;BME280;32064;49.310;8.646;2023-03-22T13:34:36;99944.88;;;25.44;33.96
19736;BME280;32064;49.310;8.646;2023-03-22T13:37:07;99940.03;;;25.21;33.97
19736;BME280;32064;49.310;8.646;2023-03-22T13:39:34;99941.31;;;25.05;34.81
19736;BME280;32064;49.310;8.646;2023-03-22T13:42:15;99934.75;;;24.87;34.64
19736;BME280;32064;49.310;8.646;2023-03-22T13:44:42;99940.41;;;24.73;34.90
19736;BME280;32064;49.310;8.646;2023-03-22T13:47:43;99945.03;;;24.52;34.73
19736;BME280;32064;49.310;8.646;2023-03-22T13:50:17;99932.59;;;24.38;34.79
19736;BME280;32064;49.310;8.646;2023-03-22T13:53:19;99937.38;;;24.23;35.46
19736;BME280;32064;49.310;8.646;2023-03-22T14:01:05;99923.94;;;24.03;36.72
19736;BME280;32064;49.310;8.646;2023-03-22T14:03:36;99927.03;;;24.00;36.85
19736;BME280;32064;49.310;8.646;2023-03-22T14:06:19;99927.69;;;23.95;37.23
19736;BME280;32064;49.310;8.646;2023-03-22T14:08:49;99924.53;;;23.71;37.11
19736;BME280;32064;49.310;8.646;2023-03-22T14:11:27;99922.03;;;23.50;37.12